Time;durP1;ratioP1;P1;durP2;ratioP2;P2;SDS_P1;SDS_P2;PMS_P1;PMS_P2;Temp;Humidity;BMP_temperature;BMP_pressure;BME280_temperature;BME280_humidity;BME280_pressure;Samples;Min_cycle;Max_cycle;Signal;HPM_P1;HPM_P2
2020/12/14 00:01:59;;;;;;;26.98;18.95;;;;;;;10.20;62.54;93271.16;4975407;28;20109;-79
2020/12/14 00:04:25;;;;;;;25.17;18.83;;;;;;;10.16;62.81;93262.28;4991260;28;20034;-80
2020/12/14 00:06:51;;;;;;;26.75;18.48;;;;;;;10.21;62.81;93273.50;4974597;28;20034;-79
2020/12/14 00:09:17;;;;;;;28.67;19.88;;;;;;;9.96;62.78;93237.84;4975324;28;20482;-79
2020/12/14 00:11:42;;;;;;;29.75;20.90;;;;;;;10.10;63.23;93277.41;4973207;28;20085;-78
2020/12/14 00:14:08;;;;;;;28.88;20.65;;;;;;;10.11;63.10;93273.69;4975484;28;20742;-79
2020/12/14 00:16:34;;;;;;;30.15;20.85;;;;;;;10.14;63.07;93282.88;4979023;28;20609;-79
2020/12/14 00:18:59;;;;;;;25.95;18.40;;;;;;;10.11;62.97;93288.75;4954587;28;20043;-79
2020/12/14 00:21:25;;;;;;;26.95;18.95;;;;;;;10.08;62.91;93289.31;4955746;28;20031;-79
2020/12/14 00:23:51;;;;;;;24.58;18.30;;;;;;;10.12;63.00;93296.34;4953868;28;20105;-79
2020/12/14 00:26:18;;;;;;;28.52;18.55;;;;;;;10.04;62.87;93289.16;4962096;28;20047;-79
2020/12/14 00:28:47;;;;;;;27.23;19.30;;;;;;;10.08;63.26;93291.97;4990652;28;20022;-79
2020/12/14 00:31:16;;;;;;;28.45;20.08;;;;;;;10.03;63.04;93287.56;4957473;28;20023;-78
2020/12/14 00:33:45;;;;;;;25.52;18.80;;;;;;;10.10;63.11;93293.25;4970203;28;20115;-78
2020/12/14 00:36:12;;;;;;;26.30;19.05;;;;;;;10.10;62.75;93297.75;4966855;28;20525;-79
2020/12/14 00:38:38;;;;;;;26.67;19.35;;;;;;;10.09;62.99;93296.97;4974217;28;20038;-79
2020/12/14 00:41:05;;;;;;;23.65;17.63;;;;;;;10.07;62.91;93303.63;4989228;28;20050;-79
2020/12/14 00:43:30;;;;;;;24.20;16.63;;;;;;;9.94;62.77;93297.28;4974934;28;20027;-79
2020/12/14 00:45:56;;;;;;;24.42;17.67;;;;;;;9.92;63.08;93302.84;4972395;28;20630;-79
2020/12/14 00:48:22;;;;;;;24.48;17.80;;;;;;;9.97;63.11;93315.94;4973643;28;20035;-79
2020/12/14 00:50:47;;;;;;;24.98;18.38;;;;;;;9.94;63.18;93319.19;4980255;28;20068;-79
2020/12/14 00:53:13;;;;;;;26.67;17.80;;;;;;;9.87;63.16;93300.31;4968805;28;20046;-79
2020/12/14 00:55:39;;;;;;;26.88;18.65;;;;;;;9.89;63.25;93315.84;4976026;28;20075;-79
2020/12/14 00:58:04;;;;;;;24.38;17.38;;;;;;;9.90;63.22;93310.28;4972369;28;20029;-79
2020/12/14 01:00:30;;;;;;;24.77;17.50;;;;;;;9.95;63.17;93322.59;4976177;28;20093;-79
2020/12/14 01:02:55;;;;;;;25.67;17.63;;;;;;;9.89;63.13;93314.00;4974254;28;20373;-79
2020/12/14 01:05:21;;;;;;;24.40;16.95;;;;;;;9.93;63.30;93324.75;4970982;28;20038;-79
2020/12/14 01:07:46;;;;;;;29.00;17.92;;;;;;;9.89;63.11;93329.84;4972679;28;20026;-79
2020/12/14 01:10:12;;;;;;;27.38;17.10;;;;;;;9.86;63.35;93334.94;4975983;28;20021;-79
2020/12/14 01:12:37;;;;;;;26.00;17.90;;;;;;;9.85;63.41;93334.16;4956839;28;20599;-79
2020/12/14 01:15:07;;;;;;;26.42;18.45;;;;;;;9.80;63.36;93336.88;4953663;28;20053;-79
2020/12/14 01:17:33;;;;;;;24.33;16.27;;;;;;;9.80;63.49;93338.75;4963053;28;20414;-79
2020/12/14 01:19:59;;;;;;;24.80;17.50;;;;;;;9.83;63.36;93335.50;4975691;28;20082;-79
2020/12/14 01:22:25;;;;;;;25.50;18.27;;;;;;;9.77;63.49;93342.75;4976855;28;20113;-79
2020/12/14 01:24:50;;;;;;;26.40;18.50;;;;;;;9.76;63.48;93335.91;4953987;28;20039;-79
2020/12/14 01:27:16;;;;;;;25.65;17.35;;;;;;;9.79;63.24;93345.09;4957354;28;20562;-79
2020/12/14 01:29:41;;;;;;;25.35;17.63;;;;;;;9.80;63.18;93352.72;4963079;28;20034;-79
2020/12/14 01:32:07;;;;;;;23.50;17.17;;;;;;;9.63;63.58;93352.50;4970137;28;20049;-79
2020/12/14 01:34:33;;;;;;;24.90;17.73;;;;;;;9.68;63.28;93349.00;4957255;28;20507;-78
2020/12/14 01:36:58;;;;;;;25.27;17.08;;;;;;;9.66;63.42;93351.94;4953538;28;20051;-79
2020/12/14 01:39:24;;;;;;;23.88;16.55;;;;;;;9.65;63.24;93339.81;4955364;28;20038;-79
2020/12/14 01:41:49;;;;;;;23.50;16.42;;;;;;;9.66;63.42;93345.88;4961625;28;20109;-78
2020/12/14 01:44:15;;;;;;;21.25;14.57;;;;;;;9.70;63.58;93358.19;4949184;28;20039;-79
2020/12/14 01:46:45;;;;;;;21.75;16.13;;;;;;;9.65;63.17;93347.72;4955123;28;20104;-79
2020/12/14 01:49:12;;;;;;;24.27;16.33;;;;;;;9.69;62.96;93350.56;4959951;28;20027;-78
2020/12/14 01:51:38;;;;;;;20.52;14.82;;;;;;;9.66;63.15;93351.94;4954921;28;20039;-79
2020/12/14 01:54:25;;;;;;;20.73;15.18;;;;;;;9.64;63.12;93362.00;4956012;28;20047;-78
2020/12/14 01:56:51;;;;;;;21.25;15.32;;;;;;;9.69;63.29;93353.97;4950737;28;20054;-79
2020/12/14 01:59:17;;;;;;;24.25;15.90;;;;;;;9.73;63.05;93359.44;4954125;28;20057;-79
2020/12/14 02:01:42;;;;;;;21.73;15.68;;;;;;;9.72;62.91;93363.97;4953707;28;20357;-79
2020/12/14 02:04:08;;;;;;;22.00;14.93;;;;;;;9.71;62.97;93367.69;4954327;28;20031;-79
2020/12/14 02:06:33;;;;;;;24.67;17.75;;;;;;;9.67;63.21;93366.69;4954491;28;20066;-79
2020/12/14 02:08:59;;;;;;;22.38;15.75;;;;;;;9.62;63.22;93369.44;4963861;28;20454;-78
2020/12/14 02:11:24;;;;;;;22.73;16.33;;;;;;;9.59;63.11;93359.44;4975327;28;20034;-78
2020/12/14 02:13:50;;;;;;;22.85;15.30;;;;;;;9.63;62.96;93354.38;4971921;28;20038;-78
2020/12/14 02:16:15;;;;;;;24.30;16.00;;;;;;;9.69;63.06;93353.97;4956551;28;20027;-79
2020/12/14 02:18:41;;;;;;;22.73;15.32;;;;;;;9.65;63.05;93371.47;4973069;28;20038;-79
2020/12/14 02:21:06;;;;;;;23.60;16.48;;;;;;;9.61;63.13;93359.16;4972385;28;20054;-79
2020/12/14 02:23:31;;;;;;;25.58;16.70;;;;;;;9.64;63.07;93364.63;4973722;28;20038;-79
2020/12/14 02:25:57;;;;;;;21.52;15.52;;;;;;;9.64;62.80;93354.06;4973893;28;20056;-79
2020/12/14 02:28:23;;;;;;;28.30;15.30;;;;;;;9.60;62.90;93341.78;4976045;28;20058;-78
2020/12/14 02:30:48;;;;;;;25.25;15.93;;;;;;;9.72;63.15;93363.19;4971491;28;20515;-79
2020/12/14 02:33:14;;;;;;;23.17;16.08;;;;;;;9.71;62.56;93354.47;4961024;28;20051;-78
2020/12/14 02:35:39;;;;;;;26.27;16.42;;;;;;;9.55;62.83;93351.34;4953403;28;20073;-79
2020/12/14 02:38:06;;;;;;;25.17;15.93;;;;;;;9.70;62.78;93373.22;4956198;28;20035;-79
2020/12/14 02:40:32;;;;;;;24.50;15.25;;;;;;;9.67;62.77;93353.50;4980505;28;20457;-79
2020/12/14 02:42:59;;;;;;;22.35;16.38;;;;;;;9.56;62.73;93360.81;4958194;28;20515;-79
2020/12/14 02:45:24;;;;;;;22.42;15.45;;;;;;;9.65;62.65;93370.69;4976950;28;20133;-79
2020/12/14 02:47:50;;;;;;;21.35;15.60;;;;;;;9.62;62.75;93366.78;4975014;28;20144;-79
2020/12/14 02:50:15;;;;;;;20.20;14.75;;;;;;;9.63;63.09;93364.94;4992214;28;20101;-79
2020/12/14 02:52:42;;;;;;;20.80;15.10;;;;;;;9.54;62.46;93338.44;4981429;28;20030;-79
2020/12/14 02:55:07;;;;;;;20.15;14.07;;;;;;;9.54;62.20;93359.53;4978281;28;20093;-79
2020/12/14 02:59:57;;;;;;;19.65;14.80;;;;;;;9.52;62.47;93366.97;5057176;27;20392;-78
2020/12/14 03:02:22;;;;;;;21.88;13.88;;;;;;;9.50;62.60;93363.84;5014688;28;20049;-78
2020/12/14 03:04:48;;;;;;;25.52;16.33;;;;;;;9.50;62.67;93361.19;5052208;28;20494;-78
2020/12/14 03:07:13;;;;;;;20.00;13.93;;;;;;;9.56;62.78;93370.59;5039105;28;20039;-78
2020/12/14 03:09:39;;;;;;;23.73;15.48;;;;;;;9.49;62.53;93362.28;5020292;28;20063;-78
2020/12/14 03:12:04;;;;;;;21.67;15.43;;;;;;;9.46;62.58;93368.13;5024812;28;20163;-78
2020/12/14 03:14:29;;;;;;;21.55;14.25;;;;;;;9.40;62.99;93369.28;5035030;28;20064;-78
2020/12/14 03:16:56;;;;;;;21.38;13.85;;;;;;;9.35;62.84;93366.75;5032514;28;20385;-78
2020/12/14 03:19:22;;;;;;;22.55;14.80;;;;;;;9.39;62.95;93373.78;5039996;28;20104;-79
2020/12/14 03:21:48;;;;;;;24.23;14.43;;;;;;;9.41;63.30;93370.88;5049536;28;20457;-78
2020/12/14 03:24:14;;;;;;;24.23;16.42;;;;;;;9.32;62.97;93362.06;5031661;28;20090;-78
2020/12/14 03:26:40;;;;;;;29.10;18.77;;;;;;;9.36;63.31;93368.31;5037319;28;20045;-78
2020/12/14 03:29:05;;;;;;;22.17;14.95;;;;;;;9.31;63.37;93363.13;5039741;28;20075;-78
2020/12/14 03:31:32;;;;;;;23.50;16.27;;;;;;;9.32;63.33;93362.06;5040206;28;20100;-78
2020/12/14 03:33:58;;;;;;;19.20;13.88;;;;;;;9.32;63.86;93357.56;5036573;28;20052;-78
2020/12/14 03:36:23;;;;;;;23.88;16.67;;;;;;;9.38;63.66;93366.19;5038699;28;20543;-78
2020/12/14 03:38:50;;;;;;;22.02;14.70;;;;;;;9.36;63.58;93371.75;5037777;28;20053;-78
2020/12/14 03:41:16;;;;;;;20.83;14.32;;;;;;;9.35;63.31;93361.47;5038783;28;20108;-78
2020/12/14 03:43:42;;;;;;;19.67;14.02;;;;;;;9.35;63.38;93361.47;5018700;28;20104;-78
2020/12/14 03:46:20;;;;;;;22.30;14.38;;;;;;;9.38;63.38;93366.19;5018937;28;20021;-79
2020/12/14 03:48:46;;;;;;;21.83;14.07;;;;;;;9.34;63.49;93367.81;4999709;28;20045;-78
2020/12/14 03:51:13;;;;;;;24.52;15.25;;;;;;;9.33;63.40;93363.63;5011191;28;20124;-78
2020/12/14 03:53:39;;;;;;;23.30;14.55;;;;;;;9.32;63.60;93367.34;5015460;28;20045;-78
2020/12/14 03:56:04;;;;;;;35.60;20.67;;;;;;;9.29;63.94;93370.53;5018515;28;20041;-78
2020/12/14 03:58:30;;;;;;;37.50;22.05;;;;;;;9.30;64.11;93380.03;5015867;28;20141;-79
2020/12/14 04:00:56;;;;;;;29.83;17.85;;;;;;;9.23;63.87;93384.91;5015326;28;20042;-78
2020/12/14 04:03:23;;;;;;;27.17;19.05;;;;;;;9.19;63.93;93383.91;5017840;28;20050;-78
2020/12/14 04:05:49;;;;;;;27.73;19.58;;;;;;;9.11;63.94;93367.69;5016932;28;20088;-78
2020/12/14 04:08:14;;;;;;;24.80;17.60;;;;;;;9.19;63.74;93386.56;5019903;28;20472;-78
2020/12/14 04:10:40;;;;;;;29.65;19.17;;;;;;;9.11;63.84;93383.50;5005828;28;20048;-78
2020/12/14 04:13:05;;;;;;;28.63;17.80;;;;;;;9.20;63.93;93385.47;5004914;28;20060;-78
2020/12/14 04:15:31;;;;;;;43.53;22.60;;;;;;;9.13;63.62;93391.91;5005404;28;20047;-79
2020/12/14 04:17:56;;;;;;;30.77;19.98;;;;;;;9.16;63.74;93387.13;5003302;28;20033;-78
2020/12/14 04:20:22;;;;;;;33.15;19.38;;;;;;;9.21;63.77;93400.22;5003608;28;20030;-78
2020/12/14 04:22:48;;;;;;;39.42;21.85;;;;;;;9.19;63.57;93399.75;5004208;28;20064;-78
2020/12/14 04:25:17;;;;;;;48.40;26.58;;;;;;;9.26;63.32;93411.47;5004943;28;20053;-78
2020/12/14 04:27:44;;;;;;;19.60;13.95;;;;;;;9.31;63.33;93406.09;5004548;28;20049;-78
2020/12/14 04:30:10;;;;;;;30.13;17.42;;;;;;;9.30;63.20;93401.91;5002749;28;20296;-78
2020/12/14 04:32:36;;;;;;;29.45;17.33;;;;;;;9.17;63.13;93401.88;5001948;28;20045;-78
2020/12/14 04:35:01;;;;;;;23.52;14.75;;;;;;;9.16;63.11;93403.72;5004247;28;20520;-78
2020/12/14 04:37:27;;;;;;;20.85;13.32;;;;;;;9.14;63.37;93401.38;5005360;28;20448;-78
2020/12/14 04:39:52;;;;;;;27.08;16.08;;;;;;;9.17;63.62;93410.56;5003034;28;20536;-78
2020/12/14 04:42:18;;;;;;;20.10;12.80;;;;;;;9.28;63.49;93419.88;5004491;28;20558;-78
2020/12/14 04:44:44;;;;;;;18.77;13.75;;;;;;;9.22;63.37;93414.97;5003087;28;20034;-79
2020/12/14 04:47:13;;;;;;;20.35;14.00;;;;;;;9.16;63.07;93416.13;5001294;28;20046;-79
2020/12/14 04:49:40;;;;;;;33.22;19.15;;;;;;;9.14;63.13;93430.38;4993299;28;20449;-79
2020/12/14 04:52:07;;;;;;;26.23;15.60;;;;;;;9.10;63.39;93434.66;5004338;28;20386;-78
2020/12/14 04:54:33;;;;;;;31.85;19.88;;;;;;;9.09;63.12;93433.06;5004170;28;20601;-78
2020/12/14 04:57:04;;;;;;;30.05;17.52;;;;;;;9.10;63.33;93429.38;5014094;28;20046;-79
2020/12/14 04:59:30;;;;;;;28.75;17.58;;;;;;;9.19;63.12;93442.69;5001213;28;20128;-79
2020/12/14 05:02:10;;;;;;;29.40;15.43;;;;;;;9.19;62.89;93444.56;5003497;28;20312;-79
2020/12/14 05:04:39;;;;;;;31.20;17.65;;;;;;;9.15;62.86;93446.97;5003587;28;20029;-79
2020/12/14 05:07:06;;;;;;;27.83;15.63;;;;;;;9.12;62.66;93444.91;5004419;28;20050;-78
2020/12/14 05:09:32;;;;;;;27.42;16.92;;;;;;;9.14;62.74;93446.19;4988212;28;20038;-79
2020/12/14 05:11:58;;;;;;;23.83;14.55;;;;;;;9.23;62.51;93453.44;4993098;28;20339;-78
2020/12/14 05:14:25;;;;;;;18.88;12.68;;;;;;;9.22;62.23;93454.50;5001009;28;20034;-79
2020/12/14 05:16:52;;;;;;;16.58;11.68;;;;;;;9.21;62.15;93461.63;5003574;28;20040;-78
2020/12/14 05:19:21;;;;;;;18.08;13.18;;;;;;;9.17;62.33;93470.41;5004436;28;20104;-79
2020/12/14 05:21:51;;;;;;;21.58;14.60;;;;;;;9.20;62.21;93469.81;5002558;28;20511;-78
2020/12/14 05:24:34;;;;;;;40.22;24.10;;;;;;;9.21;62.30;93471.41;5002887;28;20050;-78
2020/12/14 05:27:00;;;;;;;27.83;16.67;;;;;;;9.23;62.36;93479.81;5016814;28;20510;-78
2020/12/14 05:29:30;;;;;;;19.40;12.73;;;;;;;9.22;62.09;93472.97;4999831;28;20096;-79
2020/12/14 05:32:09;;;;;;;19.98;13.77;;;;;;;9.27;62.29;93483.44;5000928;28;20065;-78
2020/12/14 05:34:39;;;;;;;20.98;13.80;;;;;;;9.27;62.02;93486.06;4983390;28;20062;-79
2020/12/14 05:37:08;;;;;;;20.27;14.13;;;;;;;9.22;61.91;93483.50;5000688;28;20219;-78
2020/12/14 05:39:37;;;;;;;25.08;15.63;;;;;;;9.29;61.69;93494.47;4987601;28;20047;-78
2020/12/14 05:42:14;;;;;;;19.48;14.13;;;;;;;9.30;61.89;93491.56;4993192;28;20042;-78
2020/12/14 05:44:40;;;;;;;41.05;25.83;;;;;;;9.35;62.07;93495.97;5016708;28;20171;-79
2020/12/14 05:47:27;;;;;;;29.17;19.00;;;;;;;9.38;61.97;93498.03;5000876;28;20080;-78
2020/12/14 05:49:53;;;;;;;29.25;18.65;;;;;;;9.37;61.91;93496.47;4999577;28;20021;-79
2020/12/14 05:52:21;;;;;;;23.63;16.40;;;;;;;9.24;61.98;93490.06;5002330;28;20112;-78
2020/12/14 05:54:57;;;;;;;25.83;17.27;;;;;;;9.26;62.00;93497.69;5001474;28;20483;-78
2020/12/14 05:57:34;;;;;;;41.08;23.15;;;;;;;9.33;61.94;93506.03;5000871;28;20465;-79
2020/12/14 06:00:03;;;;;;;24.90;15.63;;;;;;;9.35;62.11;93509.16;4993803;28;20084;-78
2020/12/14 06:02:30;;;;;;;19.88;13.77;;;;;;;9.39;62.02;93510.91;4988721;28;20050;-78
2020/12/14 06:04:57;;;;;;;21.98;14.07;;;;;;;9.36;61.71;93508.09;5002139;28;20025;-78
2020/12/14 06:07:27;;;;;;;26.23;17.80;;;;;;;9.35;61.99;93514.41;4985200;28;20424;-79
2020/12/14 06:10:04;;;;;;;22.13;16.25;;;;;;;9.35;61.61;93517.06;5001154;28;20044;-79
2020/12/14 06:12:31;;;;;;;18.85;12.63;;;;;;;9.29;61.51;93512.91;5017256;28;20045;-79
2020/12/14 06:15:11;;;;;;;21.98;14.90;;;;;;;9.29;61.80;93520.84;5003020;28;20654;-78
2020/12/14 06:17:38;;;;;;;28.13;18.27;;;;;;;9.26;61.51;93516.94;5002237;28;20067;-78
2020/12/14 06:20:07;;;;;;;25.52;17.50;;;;;;;9.32;61.49;93528.19;5002738;28;20514;-79
2020/12/14 06:22:35;;;;;;;31.40;18.67;;;;;;;9.33;61.42;93533.19;5003834;28;20036;-78
2020/12/14 06:25:03;;;;;;;24.73;17.42;;;;;;;9.33;61.58;93521.84;4999234;28;20050;-78
2020/12/14 06:27:29;;;;;;;19.63;12.75;;;;;;;9.42;61.54;93535.94;4999389;28;20053;-78
2020/12/14 06:29:55;;;;;;;13.68;11.43;;;;;;;9.48;61.47;93542.72;4992794;28;20503;-78
2020/12/14 06:32:33;;;;;;;15.30;11.43;;;;;;;9.49;61.24;93545.06;5003019;28;20038;-79
2020/12/14 06:34:58;;;;;;;34.10;19.25;;;;;;;9.51;61.00;93544.78;5019348;28;20046;-79
2020/12/14 06:37:24;;;;;;;44.78;25.23;;;;;;;9.51;60.74;93544.78;5002910;28;20026;-78
2020/12/14 06:39:58;;;;;;;22.05;15.65;;;;;;;9.52;61.00;93556.91;5002235;28;20053;-78
2020/12/14 06:42:24;;;;;;;20.73;13.18;;;;;;;9.48;61.28;93554.03;5003234;28;20053;-79
2020/12/14 06:44:52;;;;;;;20.80;15.07;;;;;;;9.51;61.07;93556.09;5003435;28;20200;-79
2020/12/14 06:47:19;;;;;;;18.48;13.98;;;;;;;9.47;61.26;93562.25;5002076;28;20124;-79
2020/12/14 06:49:47;;;;;;;20.90;14.30;;;;;;;9.49;61.21;93568.78;5003464;28;20471;-79
2020/12/14 06:52:13;;;;;;;20.58;14.48;;;;;;;9.50;61.43;93574.84;5004255;28;20030;-79
2020/12/14 06:54:44;;;;;;;21.80;13.90;;;;;;;9.50;61.31;93569.56;5002564;28;20092;-78
2020/12/14 06:57:11;;;;;;;17.00;12.18;;;;;;;9.54;61.08;93575.84;5001467;28;20058;-79
2020/12/14 06:59:37;;;;;;;30.20;18.60;;;;;;;9.61;61.08;93581.56;5001779;28;20510;-79
2020/12/14 07:02:11;;;;;;;29.45;19.92;;;;;;;9.56;60.65;93568.44;5003402;28;20315;-79
2020/12/14 07:04:39;;;;;;;20.52;15.32;;;;;;;9.62;60.57;93583.13;5004715;28;20054;-79
2020/12/14 07:07:04;;;;;;;36.67;23.00;;;;;;;9.66;60.65;93584.13;5002862;28;20068;-79
2020/12/14 07:09:32;;;;;;;30.48;21.75;;;;;;;9.64;60.73;93590.72;4997716;28;20434;-79
2020/12/14 07:12:10;;;;;;;23.08;16.23;;;;;;;9.66;60.83;93593.88;4993440;28;20121;-79
2020/12/14 07:14:51;;;;;;;26.25;17.98;;;;;;;9.58;60.88;93598.72;5003332;28;20405;-78
2020/12/14 07:17:22;;;;;;;53.35;27.55;;;;;;;9.51;61.07;93590.41;4998563;28;20566;-79
2020/12/14 07:19:49;;;;;;;41.83;23.63;;;;;;;9.42;61.11;93593.97;4984986;28;20038;-79
2020/12/14 07:22:31;;;;;;;34.75;21.27;;;;;;;9.46;61.24;93597.59;5004103;28;20395;-79
2020/12/14 07:25:05;;;;;;;77.45;39.72;;;;;;;9.49;61.43;93604.94;5002780;28;20045;-79
2020/12/14 07:27:33;;;;;;;75.55;40.95;;;;;;;9.50;61.19;93601.22;5001620;28;20046;-79
2020/12/14 07:30:19;;;;;;;44.30;24.88;;;;;;;9.43;61.29;93598.19;5016059;28;20126;-79
2020/12/14 07:32:49;;;;;;;29.52;18.73;;;;;;;9.39;61.60;93605.06;4995764;28;20454;-79
2020/12/14 07:35:15;;;;;;;26.10;16.52;;;;;;;9.42;61.50;93615.84;4986390;28;20091;-79
2020/12/14 07:37:40;;;;;;;26.10;17.67;;;;;;;9.31;61.84;93603.88;5001392;28;20486;-79
2020/12/14 07:40:07;;;;;;;25.02;16.77;;;;;;;9.33;62.25;93622.06;5002682;28;20021;-79
2020/12/14 07:42:36;;;;;;;25.17;16.35;;;;;;;9.38;62.15;93614.84;4987043;28;20073;-79
2020/12/14 07:45:31;;;;;;;31.55;19.42;;;;;;;9.28;62.03;93615.00;4982941;28;20077;-79
2020/12/14 07:47:57;;;;;;;27.13;18.05;;;;;;;9.29;62.08;93619.19;4994404;28;20042;-78
2020/12/14 07:50:28;;;;;;;23.67;16.33;;;;;;;9.22;61.95;93617.97;4998776;28;20517;-79
2020/12/14 07:52:54;;;;;;;27.38;17.38;;;;;;;9.30;62.49;93625.25;4986015;28;20057;-79
2020/12/14 07:55:22;;;;;;;26.50;16.25;;;;;;;9.32;62.42;93628.38;4988810;28;20114;-79
2020/12/14 07:57:49;;;;;;;23.60;17.25;;;;;;;9.33;62.58;93633.38;5002445;28;20116;-79
2020/12/14 08:00:18;;;;;;;27.05;17.40;;;;;;;9.35;62.77;93631.25;5005240;28;20041;-79
2020/12/14 08:02:45;;;;;;;31.42;21.00;;;;;;;9.25;62.84;93609.50;5004705;28;20045;-79
2020/12/14 08:05:17;;;;;;;31.60;19.30;;;;;;;9.41;62.33;93629.31;5007522;28;20100;-79
2020/12/14 08:08:00;;;;;;;26.92;18.13;;;;;;;9.39;62.43;93631.44;5021759;28;20021;-79
2020/12/14 08:10:34;;;;;;;20.13;14.10;;;;;;;9.32;62.17;93636.31;5007562;28;20526;-79
2020/12/14 08:13:02;;;;;;;20.92;15.02;;;;;;;9.29;62.41;93634.22;5017660;28;20038;-79
2020/12/14 08:15:30;;;;;;;18.77;14.45;;;;;;;9.37;62.13;93646.78;5005647;28;20121;-79
2020/12/14 08:18:04;;;;;;;21.35;16.10;;;;;;;9.37;62.68;93644.16;5005975;28;20457;-79
2020/12/14 08:20:35;;;;;;;23.90;15.15;;;;;;;9.40;62.62;93651.47;5005596;28;20042;-79
2020/12/14 08:23:03;;;;;;;24.60;16.33;;;;;;;9.38;62.43;93645.72;5004284;28;20042;-79
2020/12/14 08:25:32;;;;;;;24.92;17.52;;;;;;;9.42;62.78;93646.72;5005364;28;20049;-79
2020/12/14 08:27:59;;;;;;;24.95;16.83;;;;;;;9.46;62.70;93653.00;4999370;28;20085;-79
2020/12/14 08:30:25;;;;;;;19.77;15.63;;;;;;;9.53;62.55;93656.81;4985607;28;20055;-79
2020/12/14 08:33:11;;;;;;;22.58;17.08;;;;;;;9.57;62.26;93664.97;4993583;28;20069;-79
2020/12/14 08:35:39;;;;;;;21.38;17.35;;;;;;;9.61;62.40;93655.41;5017135;28;20071;-79
2020/12/14 08:38:09;;;;;;;20.73;16.02;;;;;;;9.58;62.28;93648.06;4989335;28;20041;-79
2020/12/14 08:40:37;;;;;;;17.70;13.52;;;;;;;9.61;61.84;93650.16;5003642;28;20026;-79
2020/12/14 08:43:13;;;;;;;20.90;14.73;;;;;;;9.69;61.86;93656.63;5003648;28;20533;-79
2020/12/14 08:46:02;;;;;;;17.23;12.52;;;;;;;9.69;61.49;93660.03;5020346;28;20109;-79
2020/12/14 08:48:29;;;;;;;18.88;12.93;;;;;;;9.65;61.26;93661.69;5003761;28;20026;-79
2020/12/14 08:51:20;;;;;;;16.67;12.52;;;;;;;9.59;61.41;93647.00;4994514;28;20069;-79
2020/12/14 08:53:47;;;;;;;14.23;10.50;;;;;;;9.45;61.57;93659.31;4992860;28;20038;-79
2020/12/14 08:56:16;;;;;;;14.32;10.55;;;;;;;9.44;61.57;93658.53;5004992;28;20037;-79
2020/12/14 08:58:57;;;;;;;17.83;11.50;;;;;;;9.48;61.83;93650.88;5003262;28;20056;-79
2020/12/14 09:01:24;;;;;;;16.25;12.30;;;;;;;9.49;62.94;93649.78;5006680;28;20049;-78
2020/12/14 09:03:53;;;;;;;19.70;12.38;;;;;;;9.57;62.91;93651.78;5004585;28;20045;-79
2020/12/14 09:06:31;;;;;;;20.55;13.25;;;;;;;9.64;62.52;93654.06;5003159;28;20037;-79
2020/12/14 09:09:14;;;;;;;23.65;16.75;;;;;;;9.65;62.51;93648.50;5018840;28;20030;-79
2020/12/14 09:11:46;;;;;;;18.95;13.90;;;;;;;9.68;62.33;93655.81;5003510;28;20064;-79
2020/12/14 09:14:23;;;;;;;18.50;13.88;;;;;;;9.70;62.53;93643.16;5005189;28;20100;-79
2020/12/14 09:17:04;;;;;;;18.48;13.60;;;;;;;9.68;61.61;93645.28;5003687;28;20080;-79
2020/12/14 09:19:32;;;;;;;18.65;12.90;;;;;;;9.70;61.71;93640.50;4997985;28;20164;-79
2020/12/14 09:21:58;;;;;;;19.63;12.38;;;;;;;9.73;61.59;93645.19;5000945;28;20049;-79
2020/12/14 09:24:31;;;;;;;15.65;11.85;;;;;;;9.83;61.57;93652.97;5004961;28;20041;-79
2020/12/14 09:27:16;;;;;;;22.15;16.05;;;;;;;9.83;61.40;93650.34;5002190;28;20030;-79
2020/12/14 09:29:42;;;;;;;15.45;12.75;;;;;;;9.76;61.46;93649.94;5001949;28;20044;-79
2020/12/14 09:32:10;;;;;;;15.80;11.52;;;;;;;9.72;61.00;93648.94;5002672;28;20041;-79
2020/12/14 09:34:40;;;;;;;11.55;10.00;;;;;;;9.71;60.61;93643.94;5006791;28;20030;-79
2020/12/14 09:37:07;;;;;;;10.98;9.40;;;;;;;9.67;59.93;93650.84;5002296;28;20438;-79
2020/12/14 09:39:34;;;;;;;12.40;11.07;;;;;;;9.63;60.64;93649.88;5004248;28;20056;-79
2020/12/14 09:42:01;;;;;;;12.98;9.50;;;;;;;9.64;60.69;93649.56;5001598;28;20038;-79
2020/12/14 09:44:28;;;;;;;12.55;9.80;;;;;;;9.48;60.95;93640.31;5001691;28;20398;-78
2020/12/14 09:46:54;;;;;;;19.17;12.73;;;;;;;9.60;61.36;93642.50;5004131;28;20556;-79
2020/12/14 09:49:22;;;;;;;15.90;12.45;;;;;;;9.53;61.93;93637.56;5004878;28;20021;-79
2020/12/14 09:51:48;;;;;;;20.33;15.57;;;;;;;9.56;62.14;93637.81;5001411;28;20565;-79
2020/12/14 09:54:14;;;;;;;19.15;14.55;;;;;;;9.57;62.11;93643.88;5015179;28;20495;-79
2020/12/14 09:56:41;;;;;;;16.75;12.57;;;;;;;9.48;62.07;93635.03;4982727;28;20120;-79
2020/12/14 09:59:07;;;;;;;17.52;13.82;;;;;;;9.49;61.63;93633.94;4988745;28;20145;-79
2020/12/14 10:01:32;;;;;;;28.00;18.23;;;;;;;9.55;62.19;93635.44;5005751;28;20423;-79
2020/12/14 10:03:58;;;;;;;25.90;16.42;;;;;;;9.53;61.72;93637.56;4980792;28;20046;-79
2020/12/14 10:06:25;;;;;;;26.77;17.67;;;;;;;9.43;61.59;93632.47;4998060;28;20052;-79
2020/12/14 10:08:50;;;;;;;28.00;19.17;;;;;;;9.41;61.98;93626.69;5015342;28;20127;-79
2020/12/14 10:11:17;;;;;;;22.48;16.90;;;;;;;9.41;62.20;93640.66;4986067;28;20160;-79
2020/12/14 10:13:43;;;;;;;25.52;20.33;;;;;;;9.47;62.65;93633.47;4982511;28;20037;-79
2020/12/14 10:16:12;;;;;;;23.92;16.75;;;;;;;9.48;62.51;93637.69;5018312;28;20037;-79
2020/12/14 10:18:38;;;;;;;20.83;14.25;;;;;;;9.43;62.44;93632.47;5019338;28;20449;-79
2020/12/14 10:21:04;;;;;;;24.23;17.00;;;;;;;9.45;62.46;93625.03;5003589;28;20115;-79
2020/12/14 10:23:30;;;;;;;21.77;17.02;;;;;;;9.46;62.36;93627.41;5015530;28;20097;-79
2020/12/14 10:25:56;;;;;;;25.73;20.08;;;;;;;9.49;62.48;93633.94;5017980;28;20105;-79
2020/12/14 10:28:22;;;;;;;24.30;17.55;;;;;;;9.41;62.41;93635.38;5005348;28;20025;-79
2020/12/14 10:30:47;;;;;;;28.02;18.80;;;;;;;9.38;62.61;93629.91;5001490;28;20066;-80
2020/12/14 10:33:13;;;;;;;29.65;21.27;;;;;;;9.43;62.77;93638.50;4980606;28;20491;-80
2020/12/14 10:35:38;;;;;;;30.70;20.17;;;;;;;9.46;62.59;93637.94;5005894;28;20065;-80
2020/12/14 10:38:04;;;;;;;40.08;22.70;;;;;;;9.34;62.18;93627.03;5003857;28;20132;-80
2020/12/14 10:40:30;;;;;;;44.50;21.40;;;;;;;9.36;61.87;93634.66;5005061;28;20038;-80
2020/12/14 10:42:56;;;;;;;48.65;25.42;;;;;;;9.35;62.08;93641.00;5000570;28;20425;-80
2020/12/14 10:45:22;;;;;;;43.00;25.27;;;;;;;9.34;62.74;93642.06;5003344;28;20057;-80
2020/12/14 10:47:48;;;;;;;61.35;32.88;;;;;;;9.36;62.59;93637.31;4998557;28;20065;-80
2020/12/14 10:50:17;;;;;;;43.60;28.35;;;;;;;9.37;63.17;93636.22;5004588;28;20107;-80
2020/12/14 10:52:44;;;;;;;34.92;21.60;;;;;;;9.36;62.78;93637.31;5000576;28;20430;-80
2020/12/14 10:55:09;;;;;;;32.10;23.35;;;;;;;9.38;63.13;93627.25;5004367;28;20046;-80
2020/12/14 10:57:35;;;;;;;31.92;22.08;;;;;;;9.42;63.05;93623.78;5002395;28;20069;-80
2020/12/14 11:00:06;;;;;;;30.10;20.70;;;;;;;9.46;62.12;93618.69;4990966;28;20069;-80
2020/12/14 11:02:38;;;;;;;23.70;17.05;;;;;;;9.44;62.28;93626.09;4987856;28;20132;-79
2020/12/14 11:05:04;;;;;;;23.65;17.02;;;;;;;9.52;61.95;93630.75;5003355;28;20124;-80
2020/12/14 11:07:31;;;;;;;22.30;17.02;;;;;;;9.54;62.15;93624.09;5006592;28;20630;-80
2020/12/14 11:09:57;;;;;;;18.10;14.18;;;;;;;9.52;61.82;93636.03;5001298;28;20459;-80
2020/12/14 11:12:23;;;;;;;20.08;13.82;;;;;;;9.45;61.51;93635.59;5003349;28;20077;-80
2020/12/14 11:14:48;;;;;;;21.10;15.85;;;;;;;9.44;62.17;93642.72;5002942;28;20109;-79
2020/12/14 11:17:15;;;;;;;21.83;17.63;;;;;;;9.50;62.81;93633.66;5004738;28;20065;-80
2020/12/14 11:19:41;;;;;;;22.42;17.75;;;;;;;9.53;62.66;93621.75;5002272;28;20152;-80
2020/12/14 11:22:06;;;;;;;18.35;15.02;;;;;;;9.59;62.21;93633.81;5007707;28;20116;-80
2020/12/14 11:24:32;;;;;;;31.33;21.42;;;;;;;9.65;62.43;93634.53;5008226;28;20487;-80
2020/12/14 11:26:57;;;;;;;41.42;29.55;;;;;;;9.68;62.72;93645.28;5006496;28;20050;-80
2020/12/14 11:29:25;;;;;;;31.85;21.95;;;;;;;9.68;62.92;93632.09;5005911;28;20104;-80
2020/12/14 11:31:52;;;;;;;30.15;19.65;;;;;;;9.75;63.11;93629.88;5021796;28;20026;-80